Time;durP1;ratioP1;P1;durP2;ratioP2;P2;SDS_P1;SDS_P2;PMS_P1;PMS_P2;Temp;Humidity;BMP_temperature;BMP_pressure;BME280_temperature;BME280_humidity;BME280_pressure;Samples;Min_cycle;Max_cycle;Signal;HPM_P1;HPM_P2
2022/11/15 00:01:53;;;;;;;8.05;3.88;;;;;;;4.79;62.36;92837.72;2054441;69;20180;-73
2022/11/15 00:04:38;;;;;;;7.35;3.83;;;;;;;4.68;62.74;92821.47;2054543;70;20145;-73
2022/11/15 00:07:22;;;;;;;6.80;3.75;;;;;;;4.73;63.20;92826.81;2054498;69;20149;-72
2022/11/15 00:10:06;;;;;;;7.72;3.70;;;;;;;4.55;64.12;92822.50;2054499;69;20172;-73
2022/11/15 00:12:50;;;;;;;6.80;3.10;;;;;;;4.63;64.25;92822.41;2054510;70;20157;-72
2022/11/15 00:15:36;;;;;;;7.10;2.97;;;;;;;4.89;62.57;92818.31;2054345;69;20193;-73
2022/11/15 00:18:20;;;;;;;7.78;3.28;;;;;;;4.71;63.17;92817.53;2054464;69;20160;-73
2022/11/15 00:21:10;;;;;;;7.70;3.85;;;;;;;4.25;65.48;92815.81;2054538;69;20142;-73
2022/11/15 00:23:54;;;;;;;5.57;3.80;;;;;;;4.51;64.28;92817.31;2054507;70;20153;-72
2022/11/15 00:26:38;;;;;;;6.03;3.28;;;;;;;4.51;64.59;92816.56;2054540;69;20237;-73
2022/11/15 00:29:22;;;;;;;5.63;3.40;;;;;;;4.42;64.42;92811.63;2054276;69;20192;-73
2022/11/15 00:32:06;;;;;;;6.10;3.30;;;;;;;4.47;63.64;92807.88;2054419;69;20161;-73
2022/11/15 00:34:52;;;;;;;5.38;2.85;;;;;;;4.52;64.55;92799.25;2054416;69;20168;-73
2022/11/15 00:37:36;;;;;;;6.00;3.45;;;;;;;4.39;64.88;92807.91;2054433;69;20208;-74
2022/11/15 00:40:20;;;;;;;7.68;3.03;;;;;;;4.38;64.36;92800.13;2054495;70;20230;-73
2022/11/15 00:43:04;;;;;;;6.18;3.25;;;;;;;4.44;63.35;92793.00;2054334;70;20230;-73
2022/11/15 00:45:48;;;;;;;5.18;2.78;;;;;;;4.53;63.88;92795.16;2054464;69;20173;-73
2022/11/15 00:48:32;;;;;;;7.25;2.90;;;;;;;4.39;63.48;92799.53;2054515;70;20573;-73
2022/11/15 00:51:16;;;;;;;6.15;2.78;;;;;;;4.29;64.52;92802.22;2054461;69;20181;-73
2022/11/15 00:54:00;;;;;;;4.57;3.05;;;;;;;4.13;64.59;92798.06;2054438;70;20631;-72
2022/11/15 00:56:45;;;;;;;5.18;2.83;;;;;;;4.22;64.55;92788.34;2054318;70;20153;-72
2022/11/15 00:59:29;;;;;;;3.63;2.50;;;;;;;4.32;64.19;92795.53;2054218;70;20161;-74
2022/11/15 01:02:13;;;;;;;5.75;3.25;;;;;;;4.24;64.41;92794.81;2054427;69;20181;-73
2022/11/15 01:04:57;;;;;;;6.03;2.90;;;;;;;4.10;65.06;92790.09;2054461;69;20238;-74
2022/11/15 01:07:42;;;;;;;6.82;3.00;;;;;;;4.08;64.93;92785.09;2052279;70;20149;-72
2022/11/15 01:10:26;;;;;;;4.28;3.00;;;;;;;4.22;65.16;92785.56;2054441;69;20153;-73
2022/11/15 01:13:10;;;;;;;3.25;2.45;;;;;;;4.16;63.73;92776.66;2054276;69;20145;-72
2022/11/15 01:15:53;;;;;;;4.25;2.47;;;;;;;4.26;63.70;92783.09;2054286;70;20235;-73
2022/11/15 01:18:38;;;;;;;5.40;2.90;;;;;;;3.89;65.39;92777.19;2054279;69;20261;-72
2022/11/15 01:21:22;;;;;;;5.88;2.67;;;;;;;4.06;65.53;92784.91;2054232;69;20161;-74
2022/11/15 01:24:11;;;;;;;4.80;2.80;;;;;;;4.18;65.27;92782.44;2054300;70;20653;-73
2022/11/15 01:26:55;;;;;;;5.97;2.92;;;;;;;4.20;64.63;92777.75;2054343;70;20184;-73
2022/11/15 01:29:39;;;;;;;8.15;2.90;;;;;;;4.17;64.29;92770.56;2054159;70;20161;-72
2022/11/15 01:32:23;;;;;;;4.10;2.47;;;;;;;4.05;64.59;92770.25;2054439;69;20533;-73
2022/11/15 01:35:07;;;;;;;5.78;2.75;;;;;;;3.93;64.95;92768.47;2054331;70;20165;-73
2022/11/15 01:37:54;;;;;;;3.67;2.50;;;;;;;4.04;65.41;92763.19;2054336;69;20153;-72
2022/11/15 01:40:39;;;;;;;5.55;2.50;;;;;;;4.13;65.35;92753.50;2051528;70;20521;-73
2022/11/15 01:43:25;;;;;;;4.20;2.45;;;;;;;4.13;64.91;92750.69;2054185;69;20177;-74
2022/11/15 01:46:30;;;;;;;3.58;2.30;;;;;;;4.10;64.58;92742.72;2054356;70;20597;-73
2022/11/15 01:49:19;;;;;;;6.05;3.08;;;;;;;3.62;66.38;92745.59;2054244;70;20224;-73
2022/11/15 01:52:08;;;;;;;5.22;2.70;;;;;;;3.72;65.08;92738.88;2054212;70;20261;-72
2022/11/15 01:55:02;;;;;;;6.00;2.72;;;;;;;3.72;65.27;92740.94;2054294;70;20161;-72
2022/11/15 01:57:56;;;;;;;4.18;2.90;;;;;;;3.86;65.73;92733.78;2054200;70;20238;-72
2022/11/15 02:00:41;;;;;;;5.68;2.70;;;;;;;3.78;65.84;92733.09;2054250;69;20164;-74
2022/11/15 02:03:35;;;;;;;4.32;2.70;;;;;;;3.73;65.86;92728.47;2051437;70;20242;-74
2022/11/15 02:06:21;;;;;;;3.88;2.65;;;;;;;3.69;65.76;92726.09;2054226;69;20187;-75
2022/11/15 02:09:06;;;;;;;4.72;2.70;;;;;;;3.80;65.63;92728.44;2054248;70;20153;-74
2022/11/15 02:11:54;;;;;;;4.88;3.47;;;;;;;3.81;65.60;92734.75;2054209;69;20239;-75
2022/11/15 02:14:42;;;;;;;4.22;2.55;;;;;;;3.75;64.82;92721.03;2054130;70;20534;-75
2022/11/15 02:17:51;;;;;;;3.88;2.25;;;;;;;3.91;65.21;92721.69;2054136;70;20535;-74
2022/11/15 02:20:54;;;;;;;4.25;2.05;;;;;;;3.85;65.04;92715.63;2054188;69;20531;-73
2022/11/15 02:24:00;;;;;;;;;;;;;;;3.65;66.17;92714.59;2054377;69;20157;-72
2022/11/15 02:27:42;;;;;;;4.72;2.55;;;;;;;3.51;66.56;92702.25;2054244;69;20049;-74
2022/11/15 02:30:41;;;;;;;3.72;2.50;;;;;;;3.46;66.42;92695.59;2040194;70;20208;-75
2022/11/15 02:33:35;;;;;;;4.40;2.63;;;;;;;3.46;66.59;92700.44;2040258;70;20233;-74
2022/11/15 02:36:54;;;;;;;4.65;2.40;;;;;;;3.59;67.23;92689.03;2040335;70;20199;-74
2022/11/15 02:39:43;;;;;;;4.38;2.60;;;;;;;3.71;65.52;92690.06;2039280;70;20246;-74
2022/11/15 02:45:41;;;;;;;4.65;2.60;;;;;;;3.72;65.93;92685.97;2040144;70;20155;-72
2022/11/15 02:48:26;;;;;;;7.05;2.72;;;;;;;3.60;66.24;92684.19;2040175;70;20334;-72
2022/11/15 02:51:12;;;;;;;3.67;2.67;;;;;;;3.44;66.99;92684.31;2040228;70;20186;-71
2022/11/15 02:53:57;;;;;;;3.72;2.38;;;;;;;3.51;65.73;92677.19;2040199;70;20182;-72
2022/11/15 02:56:45;;;;;;;3.88;2.22;;;;;;;3.47;65.92;92671.28;2040223;70;20166;-72
2022/11/15 02:59:51;;;;;;;4.95;2.75;;;;;;;3.48;66.71;92673.50;2040425;70;20250;-72
2022/11/15 03:02:53;;;;;;;6.93;2.70;;;;;;;3.50;66.13;92675.72;2054231;69;20237;-71
2022/11/15 03:05:49;;;;;;;7.20;2.70;;;;;;;3.40;66.03;92670.03;2054184;69;20609;-71
2022/11/15 03:08:56;;;;;;;4.47;2.60;;;;;;;3.39;66.20;92667.78;2054208;70;20185;-72
2022/11/15 03:11:48;;;;;;;4.68;2.50;;;;;;;3.37;66.60;92670.41;2054157;70;20145;-73
2022/11/15 03:14:36;;;;;;;6.05;2.40;;;;;;;3.31;66.70;92673.41;2054071;70;20240;-72
2022/11/15 03:17:30;;;;;;;4.35;2.70;;;;;;;3.24;67.50;92679.75;2054053;69;20252;-71
2022/11/15 03:20:17;;;;;;;5.15;2.65;;;;;;;3.20;66.19;92665.50;2054123;70;20173;-71
2022/11/15 03:23:08;;;;;;;4.47;2.60;;;;;;;3.32;66.18;92674.91;2054175;70;20514;-71
2022/11/15 03:25:55;;;;;;;4.65;2.63;;;;;;;3.22;66.97;92674.75;2054125;70;20331;-71
2022/11/15 03:28:47;;;;;;;6.68;3.17;;;;;;;3.06;67.25;92665.72;2054057;70;20153;-71
2022/11/15 03:31:47;;;;;;;4.38;2.72;;;;;;;3.10;67.85;92670.91;2051472;70;20225;-71
2022/11/15 03:34:34;;;;;;;6.45;3.40;;;;;;;3.19;67.56;92652.88;2052737;69;20169;-72
2022/11/15 03:37:23;;;;;;;5.25;2.85;;;;;;;3.31;67.59;92659.50;2050501;70;20156;-72
2022/11/15 03:40:08;;;;;;;4.90;2.60;;;;;;;3.29;66.56;92648.94;2050427;70;20290;-73
2022/11/15 03:43:17;;;;;;;4.05;2.67;;;;;;;3.20;67.62;92648.78;2047652;70;20145;-71
2022/11/15 03:46:07;;;;;;;6.03;2.50;;;;;;;3.19;66.81;92650.84;2050483;70;20229;-72
2022/11/15 03:48:58;;;;;;;5.43;2.78;;;;;;;3.09;67.27;92641.63;2050428;70;20309;-71
2022/11/15 03:51:43;;;;;;;3.50;2.35;;;;;;;3.01;66.85;92643.69;2050417;70;20177;-72
2022/11/15 03:54:27;;;;;;;5.85;3.20;;;;;;;2.99;68.77;92641.50;2050398;70;20483;-71
2022/11/15 03:57:11;;;;;;;6.00;2.42;;;;;;;2.96;67.06;92658.56;2050390;70;20217;-71
2022/11/15 03:59:55;;;;;;;5.60;2.85;;;;;;;3.01;67.16;92650.00;2050303;70;20610;-71
2022/11/15 04:02:39;;;;;;;6.30;2.60;;;;;;;2.95;67.26;92648.75;2050425;70;20161;-71
2022/11/15 04:05:23;;;;;;;15.65;7.20;;;;;;;2.94;67.64;92650.03;2050365;70;20169;-71
2022/11/15 04:08:07;;;;;;;15.52;8.15;;;;;;;3.01;67.83;92661.13;2050333;70;20209;-72
2022/11/15 04:10:51;;;;;;;14.43;7.18;;;;;;;2.91;67.80;92657.47;2050365;70;20277;-72
2022/11/15 04:13:36;;;;;;;8.73;4.70;;;;;;;3.04;67.83;92656.50;2050258;70;20185;-72
2022/11/15 04:16:20;;;;;;;7.07;3.67;;;;;;;3.05;66.40;92646.84;2050381;70;20150;-73
2022/11/15 04:25:11;;;;;;;7.75;4.13;;;;;;;2.96;67.80;92642.59;2050816;70;20149;-72
2022/11/15 04:27:55;;;;;;;7.25;3.78;;;;;;;2.84;67.56;92636.00;2050358;70;20478;-72
2022/11/15 04:30:39;;;;;;;7.63;4.88;;;;;;;2.51;69.26;92626.84;2050695;70;20249;-72
2022/11/15 04:33:24;;;;;;;9.90;5.30;;;;;;;3.00;68.59;92628.31;2050873;70;20614;-72
2022/11/15 04:39:11;;;;;;;6.50;4.50;;;;;;;2.85;69.07;92626.34;2050893;70;20313;-72
2022/11/15 04:41:55;;;;;;;8.13;4.75;;;;;;;2.85;68.77;92628.41;2050841;70;20675;-72
2022/11/15 04:44:39;;;;;;;7.05;4.28;;;;;;;2.97;67.91;92626.66;2050818;70;20312;-72
2022/11/15 04:47:23;;;;;;;5.45;3.67;;;;;;;2.77;68.12;92620.09;2050843;70;20302;-72
2022/11/15 04:50:08;;;;;;;9.80;4.78;;;;;;;2.91;68.39;92626.88;2050868;70;20250;-72
2022/11/15 04:52:53;;;;;;;12.90;7.10;;;;;;;2.62;69.10;92615.31;2050915;70;20161;-74
2022/11/15 04:55:38;;;;;;;11.52;5.63;;;;;;;2.85;68.50;92626.34;2050929;70;20161;-74
2022/11/15 04:58:22;;;;;;;13.32;8.35;;;;;;;2.69;67.99;92624.94;2050669;70;20293;-74
2022/11/15 05:01:11;;;;;;;15.77;7.97;;;;;;;2.75;68.08;92625.47;2048040;70;20217;-73
2022/11/15 05:06:59;;;;;;;18.60;9.70;;;;;;;2.77;67.50;92622.88;2050845;70;20193;-73
2022/11/15 05:09:43;;;;;;;23.23;8.73;;;;;;;2.76;68.05;92613.78;2050862;70;20193;-73
2022/11/15 05:12:27;;;;;;;93.38;28.10;;;;;;;2.75;68.58;92615.09;2050805;70;20156;-73
2022/11/15 05:15:11;;;;;;;71.75;21.67;;;;;;;2.78;68.46;92610.44;2050650;70;20261;-73
2022/11/15 05:18:00;;;;;;;115.32;34.13;;;;;;;2.72;67.93;92615.47;2050747;70;20197;-73
2022/11/15 05:20:44;;;;;;;93.55;28.98;;;;;;;2.78;67.61;92613.22;2050804;70;20161;-73
2022/11/15 05:23:28;;;;;;;42.70;16.30;;;;;;;2.78;67.71;92613.22;2050830;70;20396;-74
2022/11/15 05:26:15;;;;;;;11.65;5.78;;;;;;;2.72;67.65;92607.88;2050756;70;20200;-73
2022/11/15 05:28:59;;;;;;;15.18;6.30;;;;;;;2.45;69.52;92615.19;2048050;70;20157;-73
2022/11/15 05:31:44;;;;;;;15.27;6.15;;;;;;;2.75;68.58;92609.53;2050736;70;20572;-73
2022/11/15 05:34:28;;;;;;;8.65;4.90;;;;;;;2.67;69.29;92603.25;2050851;70;20224;-73
2022/11/15 05:37:14;;;;;;;14.73;5.50;;;;;;;2.61;68.21;92611.06;2050718;70;20244;-73
2022/11/15 05:39:58;;;;;;;15.35;5.82;;;;;;;2.57;69.22;92605.16;2050766;70;20232;-74
2022/11/15 05:42:42;;;;;;;10.63;5.50;;;;;;;2.48;69.07;92606.47;2050598;70;20157;-75
2022/11/15 05:45:27;;;;;;;12.70;5.93;;;;;;;2.43;69.30;92606.66;2050574;70;20157;-73
2022/11/15 05:48:12;;;;;;;15.43;6.82;;;;;;;2.43;68.98;92601.88;2050893;70;20247;-72
2022/11/15 05:50:57;;;;;;;15.20;5.25;;;;;;;2.54;68.65;92595.88;2050829;70;20236;-73
2022/11/15 05:53:44;;;;;;;9.98;5.30;;;;;;;2.60;68.00;92600.50;2050809;70;20153;-75
2022/11/15 05:56:29;;;;;;;9.88;5.03;;;;;;;2.57;68.68;92596.06;2050711;70;20157;-75
2022/11/15 05:59:13;;;;;;;10.38;4.80;;;;;;;2.53;68.35;92590.91;2050632;70;20165;-75
2022/11/15 06:01:58;;;;;;;9.93;4.85;;;;;;;2.62;68.03;92595.13;2050716;70;20156;-76
2022/11/15 06:04:43;;;;;;;13.05;5.00;;;;;;;2.49;68.74;92598.88;2051785;70;20181;-75
2022/11/15 06:07:31;;;;;;;13.52;4.60;;;;;;;2.57;68.86;92601.59;2050721;70;20586;-74
2022/11/15 06:10:16;;;;;;;9.18;4.18;;;;;;;2.55;68.81;92593.84;2050832;70;20273;-75
2022/11/15 06:13:03;;;;;;;9.98;4.45;;;;;;;2.55;69.00;92602.91;2047898;70;20487;-75
2022/11/15 06:15:47;;;;;;;9.70;4.68;;;;;;;2.58;68.32;92605.88;2050615;70;20237;-76
2022/11/15 06:18:33;;;;;;;7.50;4.60;;;;;;;2.49;68.55;92605.19;2050733;70;20141;-72
2022/11/15 06:21:18;;;;;;;9.38;4.60;;;;;;;2.57;68.18;92605.16;2047980;70;20251;-73
2022/11/15 06:24:03;;;;;;;10.90;5.28;;;;;;;2.34;70.33;92598.91;2050803;70;20141;-73
2022/11/15 06:26:47;;;;;;;12.30;6.80;;;;;;;2.18;69.23;92562.84;2050620;70;20240;-73
2022/11/15 06:29:31;;;;;;;9.77;5.47;;;;;;;2.69;69.21;92597.13;2050582;70;20161;-75
2022/11/15 06:32:15;;;;;;;8.85;4.80;;;;;;;2.92;67.93;92603.31;2050808;70;20157;-75
2022/11/15 06:35:00;;;;;;;11.13;5.30;;;;;;;2.86;67.91;92597.25;2050695;70;20308;-75
2022/11/15 06:37:44;;;;;;;11.30;6.50;;;;;;;2.82;68.58;92605.22;2050734;70;20197;-75
2022/11/15 06:40:28;;;;;;;10.05;5.78;;;;;;;2.86;67.67;92602.06;2047875;70;20153;-75
2022/11/15 06:43:12;;;;;;;11.02;5.10;;;;;;;2.72;68.14;92593.97;2050610;70;20250;-75
2022/11/15 06:46:01;;;;;;;8.23;5.13;;;;;;;2.91;67.57;92593.50;2050959;70;20510;-75
2022/11/15 06:48:45;;;;;;;10.43;6.13;;;;;;;2.82;67.71;92594.09;2050998;70;20185;-76
2022/11/15 06:51:29;;;;;;;9.15;4.65;;;;;;;2.78;68.28;92594.50;2050916;70;20233;-75
2022/11/15 06:54:13;;;;;;;9.70;4.90;;;;;;;2.98;67.52;92589.97;2050710;70;20521;-76
2022/11/15 06:56:56;;;;;;;11.10;5.38;;;;;;;2.72;68.23;92587.66;2050771;70;20250;-75
2022/11/15 06:59:41;;;;;;;8.93;3.85;;;;;;;3.16;67.09;92590.78;2050613;70;20510;-74
2022/11/15 07:02:25;;;;;;;13.80;5.82;;;;;;;2.97;67.63;92590.50;2050675;70;20331;-73
2022/11/15 07:05:11;;;;;;;10.50;5.03;;;;;;;3.01;67.36;92588.81;2050687;70;20162;-72
2022/11/15 07:07:55;;;;;;;8.57;4.30;;;;;;;3.33;66.58;92592.16;2050673;70;20190;-73
2022/11/15 07:10:39;;;;;;;11.73;5.93;;;;;;;3.32;66.47;92591.41;2050559;70;20176;-73
2022/11/15 07:13:28;;;;;;;8.02;4.25;;;;;;;3.27;67.07;92584.78;2050408;70;20662;-73
2022/11/15 07:16:12;;;;;;;13.52;7.30;;;;;;;3.38;66.46;92586.34;2050572;70;20554;-75
2022/11/15 07:18:56;;;;;;;14.77;7.57;;;;;;;3.29;66.89;92590.50;2047736;70;20153;-73
2022/11/15 07:21:40;;;;;;;19.00;10.55;;;;;;;3.31;66.31;92589.94;2050497;70;20161;-73
2022/11/15 07:24:24;;;;;;;22.27;12.00;;;;;;;3.30;65.94;92586.44;2050481;70;20157;-73
2022/11/15 07:27:09;;;;;;;21.70;11.65;;;;;;;3.29;66.63;92586.97;2050469;70;20370;-73
2022/11/15 07:29:53;;;;;;;18.88;9.82;;;;;;;3.24;67.38;92590.72;2050396;70;20158;-72
2022/11/15 07:32:37;;;;;;;14.70;7.38;;;;;;;3.15;67.35;92588.56;2050523;70;20221;-72
2022/11/15 07:35:21;;;;;;;13.27;6.63;;;;;;;3.33;67.24;92590.09;2050505;70;20209;-73
2022/11/15 07:38:05;;;;;;;15.00;8.43;;;;;;;3.33;67.19;92578.97;2050484;70;20157;-73
2022/11/15 07:40:59;;;;;;;19.10;8.48;;;;;;;3.45;66.80;92579.28;2050480;70;20221;-73
2022/11/15 07:43:44;;;;;;;16.27;8.60;;;;;;;3.43;66.42;92571.47;2050475;70;20239;-72
2022/11/15 07:46:28;;;;;;;19.10;9.60;;;;;;;3.44;66.43;92575.03;2047734;70;20249;-72
2022/11/15 07:49:11;;;;;;;16.73;9.80;;;;;;;3.47;67.00;92576.66;2050494;70;20244;-73
2022/11/15 07:51:56;;;;;;;13.82;8.75;;;;;;;3.45;66.99;92566.09;2050543;70;20161;-73
2022/11/15 07:54:40;;;;;;;22.08;11.82;;;;;;;3.46;66.97;92570.34;2050503;70;20317;-73
2022/11/15 07:57:23;;;;;;;21.95;12.43;;;;;;;3.45;66.74;92565.38;2050510;70;20173;-74
2022/11/15 08:00:08;;;;;;;22.02;10.82;;;;;;;3.50;66.84;92567.19;2050341;70;20177;-73
2022/11/15 08:02:53;;;;;;;22.63;11.48;;;;;;;3.46;66.64;92562.00;2047714;70;20193;-73
2022/11/15 08:05:39;;;;;;;25.20;11.05;;;;;;;3.54;66.95;92557.13;2050639;70;20633;-73
2022/11/15 08:08:22;;;;;;;21.20;10.45;;;;;;;3.59;67.04;92560.97;2051369;70;20149;-72
2022/11/15 08:11:06;;;;;;;18.45;9.30;;;;;;;3.71;66.58;92550.88;2048931;70;20694;-73
2022/11/15 08:13:51;;;;;;;14.68;7.20;;;;;;;3.68;67.01;92551.25;2051462;70;20677;-73
2022/11/15 08:16:35;;;;;;;22.98;11.20;;;;;;;4.08;67.48;92548.28;2050926;70;20146;-73
2022/11/15 08:19:20;;;;;;;19.77;10.55;;;;;;;4.58;67.43;92548.84;2050880;70;20188;-75
2022/11/15 08:22:03;;;;;;;21.02;9.90;;;;;;;4.90;66.82;92540.81;2050980;70;20217;-76
2022/11/15 08:24:47;;;;;;;19.40;10.10;;;;;;;5.27;65.61;92533.25;2050914;70;20156;-77
2022/11/15 08:27:31;;;;;;;24.63;10.65;;;;;;;5.76;65.77;92539.75;2050917;70;20574;-75
2022/11/15 08:30:15;;;;;;;29.17;11.48;;;;;;;6.00;64.12;92527.66;2050761;70;20184;-77
2022/11/15 08:33:00;;;;;;;20.20;7.53;;;;;;;6.33;63.14;92524.44;2050825;70;20673;-74
2022/11/15 08:35:45;;;;;;;10.07;4.82;;;;;;;6.81;61.29;92524.41;2050833;70;20153;-73
2022/11/15 08:38:30;;;;;;;8.77;4.03;;;;;;;7.07;59.38;92525.56;2050872;70;20217;-73
2022/11/15 08:41:31;;;;;;;13.48;3.95;;;;;;;7.44;58.09;92521.75;2050828;70;20268;-73
2022/11/15 08:44:16;;;;;;;13.88;5.32;;;;;;;7.60;56.23;92515.19;2050762;70;20231;-73
2022/11/15 08:47:00;;;;;;;10.48;5.00;;;;;;;7.55;56.93;92513.44;2050835;70;20678;-73
2022/11/15 08:49:44;;;;;;;13.60;6.05;;;;;;;8.04;57.03;92505.53;2050931;70;20550;-73
2022/11/15 08:52:28;;;;;;;9.18;4.50;;;;;;;8.21;55.90;92503.81;2050956;70;20150;-73
2022/11/15 08:55:11;;;;;;;12.68;5.25;;;;;;;8.56;53.57;92493.53;2050985;70;20166;-73
2022/11/15 08:57:57;;;;;;;7.25;2.70;;;;;;;8.97;52.50;92493.31;2048154;70;20161;-73
2022/11/15 09:00:41;;;;;;;8.88;4.55;;;;;;;8.77;53.09;92481.53;2050809;70;20666;-73
2022/11/15 09:03:25;;;;;;;12.73;6.30;;;;;;;9.17;52.79;92479.81;2050804;70;20160;-74
2022/11/15 09:06:09;;;;;;;9.30;4.82;;;;;;;9.79;52.31;92473.00;2050941;70;20293;-74
2022/11/15 09:08:53;;;;;;;10.43;4.72;;;;;;;10.16;51.33;92473.81;2050834;70;20226;-76
2022/11/15 09:11:37;;;;;;;10.63;5.07;;;;;;;9.92;49.88;92469.59;2050762;70;20153;-76
2022/11/15 09:14:21;;;;;;;7.05;3.92;;;;;;;9.26;51.34;92464.22;2050698;70;20150;-78
2022/11/15 09:17:09;;;;;;;7.70;4.15;;;;;;;9.28;50.77;92473.47;2050812;70;20220;-77
2022/11/15 09:19:54;;;;;;;6.47;3.33;;;;;;;9.85;51.10;92465.69;2052413;70;20264;-79
2022/11/15 09:22:38;;;;;;;6.50;3.38;;;;;;;10.46;50.26;92462.91;2050782;70;20157;-77
2022/11/15 09:25:24;;;;;;;6.70;3.60;;;;;;;11.35;48.32;92461.47;2050828;70;20244;-75
2022/11/15 09:28:08;;;;;;;12.18;3.40;;;;;;;11.56;47.73;92459.75;2050680;70;20154;-77
2022/11/15 09:30:57;;;;;;;6.07;2.95;;;;;;;11.90;46.26;92455.94;2050758;70;20237;-80
2022/11/15 09:33:45;;;;;;;8.02;2.83;;;;;;;12.14;46.31;92456.50;2050817;70;20165;-73
2022/11/15 09:36:30;;;;;;;6.30;3.03;;;;;;;12.43;44.24;92461.47;2048075;70;20488;-73
2022/11/15 09:39:14;;;;;;;8.73;4.30;;;;;;;12.46;44.75;92451.75;2050792;70;20332;-73
2022/11/15 09:42:20;;;;;;;21.20;9.00;;;;;;;12.56;43.94;92450.78;2048028;70;20574;-73
2022/11/15 09:45:18;;;;;;;9.23;3.90;;;;;;;12.37;44.85;92451.94;2050712;70;20255;-73
2022/11/15 09:48:33;;;;;;;6.15;2.42;;;;;;;13.24;43.86;92435.72;2050835;70;20502;-75
2022/11/15 09:51:46;;;;;;;6.03;2.30;;;;;;;13.81;43.78;92438.28;2045638;70;20181;-77
2022/11/15 09:54:39;;;;;;;5.78;2.40;;;;;;;14.02;41.49;92425.03;2050808;70;20257;-78
2022/11/15 09:57:14;;;;;;;5.72;2.30;;;;;;;13.66;41.70;92422.06;2046712;70;20273;-80
2022/11/15 09:59:49;;;;;;;3.97;2.63;;;;;;;13.87;43.07;92418.75;2050646;70;20146;-79
2022/11/15 10:02:17;;;;;;;4.20;2.03;;;;;;;14.64;40.86;92421.34;2050695;70;20625;-79
2022/11/15 10:04:43;;;;;;;3.38;1.90;;;;;;;14.42;38.65;92406.22;2050810;70;20201;-78
2022/11/15 10:07:18;;;;;;;4.72;1.80;;;;;;;15.24;38.29;92404.59;2050719;70;20151;-78
2022/11/15 10:10:17;;;;;;;4.05;1.63;;;;;;;16.20;37.82;92393.94;2050797;70;20258;-79
2022/11/15 10:12:47;;;;;;;3.17;1.70;;;;;;;16.27;37.35;92395.63;2042194;70;20543;-80
2022/11/15 10:15:16;;;;;;;27.40;16.55;;;;;;;16.76;36.07;92391.63;2050525;70;20164;-78
2022/11/15 10:18:03;;;;;;;14.25;8.70;;;;;;;16.68;34.16;92380.69;2050617;70;20154;-80
2022/11/15 10:20:35;;;;;;;3.42;2.40;;;;;;;17.00;35.85;92377.47;2047413;70;20154;-81
2022/11/15 10:23:06;;;;;;;6.63;2.30;;;;;;;16.21;37.64;92367.72;2050858;70;20178;-77
2022/11/15 10:25:34;;;;;;;5.03;2.97;;;;;;;16.72;38.12;92368.75;2050770;70;20138;-78
2022/11/15 10:28:27;;;;;;;5.25;2.40;;;;;;;16.82;36.68;92368.38;2047246;70;20178;-77
2022/11/15 10:30:57;;;;;;;5.13;2.20;;;;;;;15.87;36.93;92361.56;2048860;70;20162;-76
2022/11/15 10:33:34;;;;;;;3.10;1.73;;;;;;;16.32;34.70;92356.75;2050735;70;20210;-77
2022/11/15 10:36:24;;;;;;;2.42;1.63;;;;;;;18.00;33.51;92358.41;2047324;70;20590;-78
2022/11/15 10:38:50;;;;;;;4.82;2.50;;;;;;;17.98;33.07;92352.69;2047422;70;20218;-78
2022/11/15 10:41:31;;;;;;;5.55;2.83;;;;;;;19.72;31.28;92342.69;2050599;70;20158;-78
2022/11/15 10:44:06;;;;;;;5.53;2.28;;;;;;;20.83;29.71;92339.84;2050438;70;20540;-78
2022/11/15 10:46:36;;;;;;;3.42;1.42;;;;;;;22.18;28.54;92342.56;2050652;70;20737;-77
2022/11/15 10:49:15;;;;;;;4.95;1.40;;;;;;;23.47;25.63;92333.78;2047319;70;20164;-78
2022/11/15 10:51:54;;;;;;;2.33;1.63;;;;;;;22.88;26.12;92329.69;2050639;70;20241;-77
2022/11/15 10:54:34;;;;;;;5.38;3.22;;;;;;;25.07;24.13;92324.41;2051881;70;20170;-75
2022/11/15 10:57:14;;;;;;;4.18;2.35;;;;;;;25.33;23.48;92323.69;2053295;70;20233;-76
2022/11/15 10:59:45;;;;;;;2.38;1.50;;;;;;;24.47;23.79;92305.56;2050599;70;20229;-79
2022/11/15 11:02:30;;;;;;;7.60;5.32;;;;;;;24.23;24.90;92309.03;2050655;70;20201;-79
2022/11/15 11:04:55;;;;;;;11.77;8.48;;;;;;;25.18;24.42;92302.09;2050595;70;20146;-79
2022/11/15 11:07:24;;;;;;;3.83;1.77;;;;;;;23.77;25.87;92295.19;2050713;70;20249;-78
2022/11/15 11:10:17;;;;;;;3.63;2.10;;;;;;;26.01;23.34;92298.38;2051156;70;20190;-79
2022/11/15 11:12:43;;;;;;;4.18;1.80;;;;;;;26.32;21.20;92295.38;2052130;70;20246;-78
2022/11/15 11:15:13;;;;;;;3.00;1.70;;;;;;;27.95;21.40;92296.41;2051067;70;20154;-79
2022/11/15 11:17:48;;;;;;;2.75;1.50;;;;;;;24.40;23.72;92272.44;2051502;70;20174;-79
2022/11/15 11:20:36;;;;;;;3.63;1.88;;;;;;;24.29;23.58;92274.56;2048131;70;20680;-78
2022/11/15 11:23:23;;;;;;;3.20;1.45;;;;;;;26.05;22.70;92263.75;2051157;70;20142;-77
2022/11/15 11:26:24;;;;;;;3.85;1.98;;;;;;;26.91;22.32;92259.72;2048821;70;20177;-72
2022/11/15 11:29:31;;;;;;;4.85;2.45;;;;;;;25.46;22.03;92255.25;2038723;70;20702;-72
2022/11/15 11:32:26;;;;;;;3.75;2.20;;;;;;;25.48;23.16;92245.88;2039821;70;20167;-74
2022/11/15 11:35:09;;;;;;;7.03;1.90;;;;;;;26.98;20.90;92232.91;2036230;70;20136;-74
2022/11/15 11:37:49;;;;;;;3.45;1.95;;;;;;;23.95;23.35;92223.41;2039725;70;20646;-75
2022/11/15 11:40:34;;;;;;;5.30;1.85;;;;;;;20.58;26.99;92221.47;2040041;70;20544;-76
2022/11/15 11:43:09;;;;;;;4.53;2.60;;;;;;;19.97;27.94;92218.94;2040501;70;20160;-75
2022/11/15 11:46:03;;;;;;;3.63;3.30;;;;;;;19.42;29.65;92211.44;2040144;70;20182;-76
2022/11/15 11:48:34;;;;;;;5.88;2.83;;;;;;;17.15;32.98;92213.69;2039519;70;20570;-73
2022/11/15 11:51:16;;;;;;;9.07;3.00;;;;;;;17.68;31.95;92198.06;2039927;70;20243;-73
2022/11/15 11:53:55;;;;;;;3.58;2.22;;;;;;;17.83;32.03;92197.09;2040335;70;20159;-73
2022/11/15 11:56:31;;;;;;;4.53;2.58;;;;;;;15.74;34.86;92192.25;2039946;70;20203;-73
2022/11/15 11:59:25;;;;;;;6.45;3.10;;;;;;;15.78;35.10;92186.00;2039945;70;20157;-73
2022/11/15 12:01:51;;;;;;;8.13;3.50;;;;;;;15.88;34.83;92184.22;2037452;70;20139;-73
2022/11/15 12:04:36;;;;;;;9.68;4.10;;;;;;;15.78;35.19;92181.03;2045872;70;20204;-71
2022/11/15 12:07:32;;;;;;;4.80;3.60;;;;;;;14.86;37.03;92166.50;2054686;70;20135;-71
2022/11/15 12:10:11;;;;;;;8.30;3.95;;;;;;;14.85;37.61;92167.88;2054354;70;20163;-71
2022/11/15 12:13:02;;;;;;;10.48;5.53;;;;;;;13.62;39.42;92159.59;2054595;70;20164;-71
2022/11/15 12:15:35;;;;;;;7.07;3.80;;;;;;;13.96;38.92;92165.88;2054346;69;20142;-72
2022/11/15 12:18:01;;;;;;;;;;;;;;;14.24;38.60;92154.22;2051161;70;20499;-72
2022/11/15 12:20:32;;;;;;;9.07;4.43;;;;;;;13.96;38.97;92148.19;2054382;70;20054;-73
2022/11/15 12:23:15;;;;;;;7.35;4.18;;;;;;;13.53;39.82;92142.94;2054499;70;20186;-71
2022/11/15 12:25:40;;;;;;;7.03;3.90;;;;;;;13.12;41.42;92144.03;2054073;70;20148;-71
2022/11/15 12:28:18;;;;;;;11.48;6.20;;;;;;;11.71;43.76;92152.53;2054394;70;20524;-71
2022/11/15 12:30:54;;;;;;;15.43;5.35;;;;;;;12.37;42.53;92139.38;2054709;70;20228;-71
2022/11/15 12:33:32;;;;;;;10.27;4.50;;;;;;;12.41;42.29;92128.25;2054436;70;20139;-72
2022/11/15 12:36:03;;;;;;;9.43;5.10;;;;;;;12.49;41.99;92133.53;2054596;70;20233;-71
2022/11/15 12:38:47;;;;;;;9.02;4.82;;;;;;;12.35;43.00;92124.44;2054785;70;20318;-71
2022/11/15 12:41:18;;;;;;;10.32;5.28;;;;;;;12.44;43.12;92129.81;2054812;70;20212;-72
2022/11/15 12:43:45;;;;;;;11.48;4.63;;;;;;;11.20;46.37;92129.63;2054917;70;20142;-73
2022/11/15 12:46:20;;;;;;;23.23;11.50;;;;;;;11.48;46.23;92130.28;2054897;69;20212;-76
2022/11/15 12:48:53;;;;;;;19.92;12.25;;;;;;;11.78;45.78;92133.09;2054847;70;20295;-74
2022/11/15 12:51:43;;;;;;;18.83;10.13;;;;;;;11.58;45.36;92122.28;2055127;69;20149;-73
2022/11/15 12:54:21;;;;;;;16.70;9.43;;;;;;;11.97;45.70;92117.78;2053928;70;20150;-76
2022/11/15 12:57:07;;;;;;;22.25;11.07;;;;;;;11.91;45.33;92135.13;2055758;70;20145;-78
2022/11/15 12:59:51;;;;;;;20.67;12.70;;;;;;;11.88;46.05;92117.41;2054611;70;20632;-72
2022/11/15 13:02:23;;;;;;;19.05;10.65;;;;;;;12.29;44.76;92105.16;2054828;70;20158;-73
2022/11/15 13:04:52;;;;;;;17.27;10.52;;;;;;;12.30;44.32;92126.34;2054879;70;20228;-72
2022/11/15 13:07:35;;;;;;;26.02;12.75;;;;;;;12.12;45.08;92114.25;2054747;70;20166;-75
2022/11/15 13:10:22;;;;;;;61.15;30.48;;;;;;;12.20;44.62;92109.69;2055002;70;20150;-75
2022/11/15 13:13:09;;;;;;;19.25;10.55;;;;;;;12.15;45.73;92110.16;2052205;70;20239;-73
2022/11/15 13:15:53;;;;;;;21.85;11.73;;;;;;;12.55;45.33;92099.19;2050241;70;20269;-73